createdAt,value
2019-06-29T00:00:38.262Z,18.74
2019-06-29T00:01:38.279Z,18.83
2019-06-29T00:02:38.304Z,18.84
2019-06-29T00:03:38.331Z,18.73
2019-06-29T00:04:38.353Z,18.73
2019-06-29T00:05:38.377Z,18.77
2019-06-29T00:06:38.388Z,18.77
2019-06-29T00:07:38.413Z,18.75
2019-06-29T00:08:38.440Z,18.73
2019-06-29T00:09:38.455Z,18.65
2019-06-29T00:10:38.476Z,18.68
2019-06-29T00:11:38.496Z,18.68
2019-06-29T00:12:38.664Z,18.60
2019-06-29T00:13:38.549Z,18.56
2019-06-29T00:14:38.563Z,18.60
2019-06-29T00:15:38.592Z,18.59
2019-06-29T00:16:38.605Z,18.58
2019-06-29T00:17:38.637Z,18.58
2019-06-29T00:18:38.649Z,18.53
2019-06-29T00:19:38.677Z,18.56
2019-06-29T00:20:38.701Z,18.45
2019-06-29T00:21:38.720Z,18.43
2019-06-29T00:22:38.742Z,18.49
2019-06-29T00:23:38.757Z,18.47
2019-06-29T00:24:38.779Z,18.45
2019-06-29T00:25:38.801Z,18.45
2019-06-29T00:26:38.823Z,18.50
2019-06-29T00:27:38.853Z,18.50
2019-06-29T00:28:38.869Z,18.50
2019-06-29T00:29:38.895Z,18.43
2019-06-29T00:30:38.911Z,18.44
2019-06-29T00:31:38.935Z,18.40
2019-06-29T00:32:38.955Z,18.29
2019-06-29T00:33:38.976Z,18.40
2019-06-29T00:34:39.006Z,18.35
2019-06-29T00:35:39.020Z,18.37
2019-06-29T00:36:39.040Z,18.35
2019-06-29T00:37:39.060Z,18.37
2019-06-29T00:38:39.082Z,18.34
2019-06-29T00:39:39.103Z,18.34
2019-06-29T00:40:39.133Z,18.31
2019-06-29T00:41:39.153Z,18.31
2019-06-29T00:42:39.169Z,18.35
2019-06-29T00:43:39.191Z,18.26
2019-06-29T00:44:39.213Z,18.26
2019-06-29T00:45:39.232Z,18.22
2019-06-29T00:46:39.262Z,18.25
2019-06-29T00:47:39.275Z,18.19
2019-06-29T00:48:39.297Z,18.11
2019-06-29T00:49:39.318Z,18.18
2019-06-29T00:50:39.341Z,18.16
2019-06-29T00:51:39.371Z,18.15
2019-06-29T00:52:39.390Z,18.23
2019-06-29T00:53:39.406Z,18.10
2019-06-29T00:54:39.433Z,18.07
2019-06-29T00:55:39.448Z,18.15
2019-06-29T00:56:39.479Z,18.11
2019-06-29T00:57:39.526Z,18.13
2019-06-29T00:58:39.512Z,18.16
2019-06-29T00:59:39.533Z,18.11
2019-06-29T01:00:39.555Z,18.13
2019-06-29T01:01:39.585Z,18.11
2019-06-29T01:02:39.608Z,18.10
2019-06-29T01:03:40.080Z,18.11
2019-06-29T01:04:39.642Z,18.19
2019-06-29T01:05:39.665Z,18.05
2019-06-29T01:06:40.034Z,18.08
2019-06-29T01:07:39.707Z,18.07
2019-06-29T01:08:39.726Z,18.04
2019-06-29T01:09:40.052Z,17.94
2019-06-29T01:10:39.769Z,17.87
2019-06-29T01:11:39.799Z,17.89
2019-06-29T01:12:39.816Z,17.85
2019-06-29T01:13:48.091Z,17.86
2019-06-29T01:14:39.858Z,17.90
2019-06-29T01:15:39.881Z,17.80
2019-06-29T01:16:39.907Z,17.79
2019-06-29T01:17:39.919Z,17.79
2019-06-29T01:18:39.944Z,17.89
2019-06-29T01:19:39.965Z,17.92
2019-06-29T01:20:39.985Z,17.90
2019-06-29T01:21:40.007Z,17.95
2019-06-29T01:22:40.028Z,17.87
2019-06-29T01:23:40.069Z,17.79
2019-06-29T01:24:43.495Z,17.78
2019-06-29T01:25:40.092Z,17.72
2019-06-29T01:26:40.112Z,17.76
2019-06-29T01:27:40.145Z,17.74
2019-06-29T01:28:40.163Z,17.78
2019-06-29T01:29:40.335Z,17.85
2019-06-29T01:30:40.197Z,17.64
2019-06-29T01:31:40.226Z,17.74
2019-06-29T01:32:40.242Z,17.68
2019-06-29T01:33:40.264Z,17.72
2019-06-29T01:34:40.284Z,17.76
2019-06-29T01:35:40.309Z,17.72
2019-06-29T01:36:40.324Z,17.68
2019-06-29T01:37:40.345Z,17.68
2019-06-29T01:38:40.372Z,17.74
2019-06-29T01:39:40.392Z,17.80
2019-06-29T01:40:40.409Z,17.80
2019-06-29T01:41:40.432Z,17.74
2019-06-29T01:42:40.461Z,17.74
2019-06-29T01:43:40.479Z,17.82
2019-06-29T01:44:40.496Z,17.64
2019-06-29T01:45:40.522Z,17.67
2019-06-29T01:46:40.539Z,17.57
2019-06-29T01:47:40.566Z,17.52
2019-06-29T01:48:40.583Z,17.64
2019-06-29T01:49:40.604Z,17.65
2019-06-29T01:50:40.622Z,17.64
2019-06-29T01:51:40.652Z,17.57
2019-06-29T01:52:40.666Z,17.51
2019-06-29T01:53:40.692Z,17.49
2019-06-29T01:54:40.707Z,17.54
2019-06-29T01:55:40.734Z,17.42
2019-06-29T01:56:41.174Z,17.33
2019-06-29T01:57:40.770Z,17.44
2019-06-29T01:58:40.810Z,17.42
2019-06-29T01:59:40.817Z,17.46
2019-06-29T02:00:40.844Z,17.46
2019-06-29T02:01:40.855Z,17.34
2019-06-29T02:02:40.886Z,17.44
2019-06-29T02:03:40.906Z,17.39
2019-06-29T02:04:40.918Z,17.31
2019-06-29T02:05:40.944Z,17.36
2019-06-29T02:06:40.963Z,17.31
2019-06-29T02:07:40.983Z,17.29
2019-06-29T02:08:41.007Z,17.30
2019-06-29T02:09:41.029Z,17.30
2019-06-29T02:10:41.065Z,17.23
2019-06-29T02:11:41.072Z,17.38
2019-06-29T02:12:41.089Z,17.30
2019-06-29T02:13:41.144Z,17.29
2019-06-29T02:14:41.137Z,17.16
2019-06-29T02:15:41.153Z,17.14
2019-06-29T02:16:41.174Z,17.12
2019-06-29T02:17:41.193Z,17.12
2019-06-29T02:18:41.220Z,17.11
2019-06-29T02:19:41.241Z,17.16
2019-06-29T02:20:41.259Z,17.06
2019-06-29T02:21:41.429Z,17.11
2019-06-29T02:22:41.299Z,17.22
2019-06-29T02:23:41.319Z,17.19
2019-06-29T02:24:41.365Z,17.11
2019-06-29T02:25:41.362Z,17.15
2019-06-29T02:26:41.384Z,17.14
2019-06-29T02:27:41.404Z,17.08
2019-06-29T02:28:41.424Z,17.05
2019-06-29T02:29:41.451Z,17.08
2019-06-29T02:30:41.476Z,17.05
2019-06-29T02:31:41.491Z,17.09
2019-06-29T02:32:41.517Z,16.97
2019-06-29T02:33:41.532Z,16.94
2019-06-29T02:34:41.550Z,16.94
2019-06-29T02:35:41.584Z,16.93
2019-06-29T02:36:41.595Z,16.99
2019-06-29T02:37:41.615Z,16.96
2019-06-29T02:38:41.643Z,16.93
2019-06-29T02:39:41.658Z,16.93
2019-06-29T02:40:41.679Z,16.94
2019-06-29T02:41:41.697Z,16.99
2019-06-29T02:42:41.721Z,16.84
2019-06-29T02:43:41.738Z,16.86
2019-06-29T02:44:41.766Z,16.89
2019-06-29T02:45:41.780Z,16.81
2019-06-29T02:46:41.808Z,16.74
2019-06-29T02:47:41.825Z,16.76
2019-06-29T02:48:41.842Z,16.81
2019-06-29T02:49:41.934Z,16.87
2019-06-29T02:50:41.886Z,16.91
2019-06-29T02:51:41.913Z,16.91
2019-06-29T02:52:41.932Z,16.89
2019-06-29T02:53:41.947Z,16.86
2019-06-29T02:54:41.981Z,16.76
2019-06-29T02:55:42.009Z,16.75
2019-06-29T02:56:42.008Z,16.72
2019-06-29T02:57:42.046Z,16.74
2019-06-29T02:58:42.051Z,16.71
2019-06-29T02:59:42.072Z,16.72
2019-06-29T03:00:42.094Z,16.71
2019-06-29T03:01:42.121Z,16.71
2019-06-29T03:02:42.144Z,16.72
2019-06-29T03:03:42.160Z,16.64
2019-06-29T03:04:42.182Z,16.74
2019-06-29T03:05:42.195Z,16.68
2019-06-29T03:06:42.227Z,16.61
2019-06-29T03:07:42.237Z,16.68
2019-06-29T03:08:42.257Z,16.66
2019-06-29T03:09:42.282Z,16.65
2019-06-29T03:10:42.307Z,16.68
2019-06-29T03:11:42.332Z,16.74
2019-06-29T03:12:42.346Z,16.75
2019-06-29T03:13:42.361Z,16.72
2019-06-29T03:14:42.385Z,16.64
2019-06-29T03:15:42.408Z,16.60
2019-06-29T03:16:42.432Z,16.66
2019-06-29T03:17:42.450Z,16.61
2019-06-29T03:18:42.474Z,16.60
2019-06-29T03:19:42.488Z,16.58
2019-06-29T03:20:42.510Z,16.69
2019-06-29T03:21:42.535Z,16.61
2019-06-29T03:22:42.549Z,16.56
2019-06-29T03:23:42.571Z,16.64
2019-06-29T03:24:42.590Z,16.64
2019-06-29T03:25:54.183Z,16.57
2019-06-29T03:26:42.631Z,16.66
2019-06-29T03:27:42.659Z,16.78
2019-06-29T03:28:42.671Z,16.68
2019-06-29T03:29:42.696Z,16.69
2019-06-29T03:30:42.713Z,16.58
2019-06-29T03:31:42.734Z,16.72
2019-06-29T03:32:42.784Z,16.56
2019-06-29T03:33:42.779Z,16.60
2019-06-29T03:34:42.797Z,16.58
2019-06-29T03:35:42.816Z,16.56
2019-06-29T03:36:42.837Z,16.61
2019-06-29T03:37:42.857Z,16.53
2019-06-29T03:38:42.930Z,16.50
2019-06-29T03:39:42.907Z,16.54
2019-06-29T03:40:42.927Z,16.57
2019-06-29T03:41:42.940Z,16.46
2019-06-29T03:42:42.969Z,16.65
2019-06-29T03:43:42.987Z,16.57
2019-06-29T03:44:43.004Z,16.50
2019-06-29T03:45:43.032Z,16.54
2019-06-29T03:46:43.045Z,16.43
2019-06-29T03:47:43.069Z,16.50
2019-06-29T03:48:43.086Z,16.54
2019-06-29T03:49:43.105Z,16.47
2019-06-29T03:50:43.129Z,16.56
2019-06-29T03:51:43.147Z,16.53
2019-06-29T03:52:43.169Z,16.51
2019-06-29T03:53:43.190Z,16.47
2019-06-29T03:54:43.214Z,16.54
2019-06-29T03:55:43.234Z,16.49
2019-06-29T03:56:43.249Z,16.60
2019-06-29T03:57:43.272Z,16.60
2019-06-29T03:58:43.292Z,16.66
2019-06-29T03:59:43.311Z,16.60
2019-06-29T04:00:43.340Z,16.58
2019-06-29T04:01:43.371Z,16.54
2019-06-29T04:02:43.375Z,16.60
2019-06-29T04:03:43.397Z,16.60
2019-06-29T04:04:43.420Z,16.57
2019-06-29T04:05:43.444Z,16.61
2019-06-29T04:06:43.473Z,16.61
2019-06-29T04:07:43.476Z,16.68
2019-06-29T04:08:43.505Z,16.68
2019-06-29T04:09:43.525Z,16.66
2019-06-29T04:10:43.538Z,16.65
2019-06-29T04:11:43.559Z,16.54
2019-06-29T04:12:43.579Z,16.65
2019-06-29T04:13:43.608Z,16.57
2019-06-29T04:14:43.656Z,16.61
2019-06-29T04:15:43.641Z,16.61
2019-06-29T04:16:43.670Z,16.57
2019-06-29T04:17:43.699Z,16.54
2019-06-29T04:18:43.703Z,16.61
2019-06-29T04:19:43.820Z,16.64
2019-06-29T04:20:43.751Z,16.66
2019-06-29T04:21:43.767Z,16.71
2019-06-29T04:22:43.790Z,16.69
2019-06-29T04:23:43.808Z,16.68
2019-06-29T04:24:43.827Z,16.71
2019-06-29T04:25:43.851Z,16.75
2019-06-29T04:26:43.869Z,16.75
2019-06-29T04:27:43.891Z,16.74
2019-06-29T04:28:43.914Z,16.81
2019-06-29T04:29:43.932Z,16.81
2019-06-29T04:30:43.958Z,16.90
2019-06-29T04:31:43.982Z,16.97
2019-06-29T04:32:43.995Z,16.93
2019-06-29T04:33:44.016Z,16.97
2019-06-29T04:34:44.045Z,16.93
2019-06-29T04:35:44.064Z,16.93
2019-06-29T04:36:44.076Z,16.96
2019-06-29T04:37:44.103Z,17.06
2019-06-29T04:38:44.126Z,16.96
2019-06-29T04:39:44.138Z,17.09
2019-06-29T04:40:44.158Z,17.06
2019-06-29T04:41:44.186Z,17.06
2019-06-29T04:42:44.210Z,17.19
2019-06-29T04:43:44.223Z,17.11
2019-06-29T04:44:44.246Z,17.11
2019-06-29T04:45:44.265Z,17.11
2019-06-29T04:46:44.486Z,17.09
2019-06-29T04:47:44.309Z,17.16
2019-06-29T04:48:44.327Z,17.26
2019-06-29T04:49:44.348Z,17.27
2019-06-29T04:50:44.370Z,17.38
2019-06-29T04:51:44.398Z,17.41
2019-06-29T04:52:44.412Z,17.38
2019-06-29T04:53:44.430Z,17.38
2019-06-29T04:54:44.456Z,17.39
2019-06-29T04:55:44.492Z,17.57
2019-06-29T04:56:44.645Z,17.52
2019-06-29T04:57:44.518Z,17.52
2019-06-29T04:58:44.545Z,17.56
2019-06-29T04:59:44.558Z,17.65
2019-06-29T05:00:44.586Z,17.70
2019-06-29T05:01:44.601Z,17.64
2019-06-29T05:02:44.626Z,17.68
2019-06-29T05:03:44.647Z,17.71
2019-06-29T05:04:44.670Z,17.85
2019-06-29T05:05:44.686Z,17.68
2019-06-29T05:06:44.707Z,17.76
2019-06-29T05:07:44.727Z,17.83
2019-06-29T05:08:44.750Z,17.92
2019-06-29T05:09:44.777Z,17.87
2019-06-29T05:10:44.792Z,17.90
2019-06-29T05:11:44.819Z,18.00
2019-06-29T05:12:44.838Z,17.94
2019-06-29T05:13:44.859Z,18.01
2019-06-29T05:14:44.875Z,18.01
2019-06-29T05:15:44.895Z,18.07
2019-06-29T05:16:44.925Z,18.07
2019-06-29T05:17:44.946Z,18.05
2019-06-29T05:18:44.961Z,18.15
2019-06-29T05:19:44.982Z,18.07
2019-06-29T05:20:45.002Z,18.18
2019-06-29T05:21:45.023Z,18.01
2019-06-29T05:22:45.045Z,18.10
2019-06-29T05:23:45.074Z,18.22
2019-06-29T05:24:45.092Z,18.31
2019-06-29T05:25:45.111Z,18.37
2019-06-29T05:26:59.607Z,18.33
2019-06-29T05:27:45.156Z,18.31
2019-06-29T05:28:45.175Z,18.31
2019-06-29T05:29:45.195Z,18.38
2019-06-29T05:30:45.226Z,18.38
2019-06-29T05:31:45.241Z,18.37
2019-06-29T05:32:45.262Z,18.41
2019-06-29T05:33:45.359Z,18.41
2019-06-29T05:34:45.318Z,18.40
2019-06-29T05:35:45.327Z,18.52
2019-06-29T05:36:45.355Z,18.47
2019-06-29T05:37:45.376Z,18.55
2019-06-29T05:38:45.398Z,18.50
2019-06-29T05:39:45.413Z,18.59
2019-06-29T05:40:45.432Z,18.56
2019-06-29T05:41:45.608Z,18.71
2019-06-29T05:42:45.478Z,18.75
2019-06-29T05:43:45.497Z,18.84
2019-06-29T05:44:45.519Z,18.90
2019-06-29T05:45:45.545Z,18.93
2019-06-29T05:46:45.564Z,19.16
2019-06-29T05:47:45.585Z,19.29
2019-06-29T05:48:45.615Z,19.44
2019-06-29T05:49:45.636Z,19.58
2019-06-29T05:50:45.651Z,19.58
2019-06-29T05:51:45.675Z,19.82
2019-06-29T05:52:45.698Z,19.94
2019-06-29T05:53:45.725Z,20.06
2019-06-29T05:54:45.744Z,20.06
2019-06-29T05:55:45.767Z,20.14
2019-06-29T05:56:45.790Z,20.26
2019-06-29T05:57:45.812Z,20.29
2019-06-29T05:58:45.835Z,20.34
2019-06-29T05:59:45.854Z,20.31
2019-06-29T06:00:45.885Z,20.43
2019-06-29T06:01:45.901Z,20.60
2019-06-29T06:02:45.924Z,20.66
2019-06-29T06:03:45.948Z,20.66
2019-06-29T06:04:45.976Z,20.81
2019-06-29T06:05:45.997Z,20.81
2019-06-29T06:06:46.027Z,20.80
2019-06-29T06:07:46.042Z,20.82
2019-06-29T06:08:46.069Z,20.97
2019-06-29T06:09:46.096Z,21.09
2019-06-29T06:10:46.112Z,21.11
2019-06-29T06:11:46.135Z,21.06
2019-06-29T06:12:46.194Z,21.09
2019-06-29T06:13:46.188Z,21.09
2019-06-29T06:14:46.210Z,21.24
2019-06-29T06:15:46.234Z,21.17
2019-06-29T06:16:46.714Z,21.21
2019-06-29T06:17:46.280Z,21.18
2019-06-29T06:18:46.305Z,21.30
2019-06-29T06:19:46.330Z,21.37
2019-06-29T06:20:46.360Z,21.42
2019-06-29T06:21:46.389Z,21.40
2019-06-29T06:22:46.403Z,21.45
2019-06-29T06:23:46.427Z,21.67
2019-06-29T06:24:46.451Z,21.88
2019-06-29T06:25:47.991Z,21.75
2019-06-29T06:26:46.502Z,21.73
2019-06-29T06:27:46.530Z,21.82
2019-06-29T06:28:46.560Z,21.95
2019-06-29T06:29:46.580Z,22.13
2019-06-29T06:30:46.604Z,21.99
2019-06-29T06:31:46.632Z,21.91
2019-06-29T06:32:46.652Z,21.92
2019-06-29T06:33:46.683Z,21.96
2019-06-29T06:34:46.703Z,21.98
2019-06-29T06:35:46.728Z,22.10
2019-06-29T06:36:46.760Z,22.17
2019-06-29T06:37:46.786Z,22.29
2019-06-29T06:38:46.809Z,22.26
2019-06-29T06:39:46.833Z,22.43
2019-06-29T06:40:46.859Z,22.48
2019-06-29T06:41:46.884Z,22.41
2019-06-29T06:42:46.908Z,22.43
2019-06-29T06:43:46.946Z,22.43
2019-06-29T06:44:46.959Z,22.53
2019-06-29T06:45:46.989Z,22.53
2019-06-29T06:46:47.020Z,22.47
2019-06-29T06:47:47.046Z,22.47
2019-06-29T06:48:47.067Z,22.65
2019-06-29T06:49:47.097Z,22.72
2019-06-29T06:50:47.123Z,22.72
2019-06-29T06:51:47.148Z,22.68
2019-06-29T06:52:47.174Z,22.55
2019-06-29T06:53:47.195Z,22.54
2019-06-29T06:54:47.223Z,22.66
2019-06-29T06:55:47.249Z,22.83
2019-06-29T06:56:47.273Z,22.91
2019-06-29T06:57:49.775Z,22.88
2019-06-29T06:58:47.329Z,22.68
2019-06-29T06:59:47.358Z,22.60
2019-06-29T07:00:48.395Z,22.70
2019-06-29T07:01:47.408Z,22.70
2019-06-29T07:02:47.434Z,22.72
2019-06-29T07:03:47.465Z,22.93
2019-06-29T07:04:47.537Z,23.03
2019-06-29T07:05:47.519Z,23.09
2019-06-29T07:06:47.538Z,23.17
2019-06-29T07:07:47.573Z,23.12
2019-06-29T07:08:47.594Z,23.27
2019-06-29T07:09:47.618Z,23.32
2019-06-29T07:10:47.654Z,23.46
2019-06-29T07:11:47.677Z,23.68
2019-06-29T07:12:47.707Z,23.80
2019-06-29T07:13:47.732Z,23.71
2019-06-29T07:14:47.762Z,23.62
2019-06-29T07:15:47.786Z,23.76
2019-06-29T07:16:47.809Z,23.80
2019-06-29T07:17:47.843Z,23.84
2019-06-29T07:18:47.870Z,23.80
2019-06-29T07:19:47.889Z,23.76
2019-06-29T07:20:47.918Z,23.62
2019-06-29T07:21:47.951Z,23.74
2019-06-29T07:22:47.969Z,23.77
2019-06-29T07:23:48.026Z,23.77
2019-06-29T07:24:48.025Z,23.77
2019-06-29T07:25:48.053Z,23.77
2019-06-29T07:26:48.077Z,23.86
2019-06-29T07:27:48.108Z,23.74
2019-06-29T07:28:48.133Z,23.93
2019-06-29T07:29:48.161Z,24.20
2019-06-29T07:30:48.189Z,24.21
2019-06-29T07:31:48.223Z,24.13
2019-06-29T07:32:48.241Z,24.11
2019-06-29T07:33:48.277Z,24.18
2019-06-29T07:34:48.319Z,24.32
2019-06-29T07:35:48.323Z,24.38
2019-06-29T07:36:48.360Z,24.35
2019-06-29T07:37:48.380Z,24.14
2019-06-29T07:39:02.561Z,24.26
2019-06-29T07:39:48.432Z,24.32
2019-06-29T07:40:48.463Z,24.50
2019-06-29T07:41:48.490Z,24.35
2019-06-29T07:42:48.525Z,24.53
2019-06-29T07:43:48.561Z,24.47
2019-06-29T07:44:48.570Z,24.35
2019-06-29T07:45:48.604Z,24.53
2019-06-29T07:46:48.626Z,24.57
2019-06-29T07:47:48.658Z,24.39
2019-06-29T07:48:48.690Z,24.51
2019-06-29T07:49:48.717Z,24.48
2019-06-29T07:50:53.882Z,24.43
2019-06-29T07:51:48.763Z,24.57
2019-06-29T07:52:48.789Z,24.55
2019-06-29T07:53:49.002Z,24.89
2019-06-29T07:54:48.850Z,25.06
2019-06-29T07:55:48.874Z,24.93
2019-06-29T07:56:48.896Z,25.01
2019-06-29T07:57:48.927Z,25.13
2019-06-29T07:58:48.953Z,25.16
2019-06-29T07:59:48.987Z,25.06
2019-06-29T08:00:49.006Z,25.04
2019-06-29T08:01:49.032Z,25.13
2019-06-29T08:02:49.064Z,25.22
2019-06-29T08:03:49.086Z,25.38
2019-06-29T08:04:49.120Z,25.54
2019-06-29T08:05:49.140Z,25.40
2019-06-29T08:06:49.170Z,25.63
2019-06-29T08:07:49.194Z,25.54
2019-06-29T08:08:49.235Z,25.77
2019-06-29T08:09:49.250Z,25.63
2019-06-29T08:10:49.277Z,25.51
2019-06-29T08:11:49.313Z,25.51
2019-06-29T08:12:49.337Z,25.35
2019-06-29T08:13:49.363Z,25.40
2019-06-29T08:14:49.384Z,25.28
2019-06-29T08:15:49.408Z,25.23
2019-06-29T08:16:49.436Z,25.17
2019-06-29T08:17:49.466Z,25.31
2019-06-29T08:18:49.494Z,25.26
2019-06-29T08:19:49.517Z,25.04
2019-06-29T08:20:49.544Z,24.98
2019-06-29T08:21:49.572Z,25.22
2019-06-29T08:22:49.603Z,25.44
2019-06-29T08:23:49.632Z,25.63
2019-06-29T08:24:49.656Z,25.60
2019-06-29T08:25:49.676Z,25.47
2019-06-29T08:26:49.709Z,25.54
2019-06-29T08:27:49.742Z,25.53
2019-06-29T08:28:49.769Z,25.58
2019-06-29T08:29:49.792Z,25.60
2019-06-29T08:30:49.812Z,25.66
2019-06-29T08:31:49.845Z,25.54
2019-06-29T08:32:55.896Z,25.66
2019-06-29T08:33:49.898Z,25.70
2019-06-29T08:34:49.926Z,25.58
2019-06-29T08:35:49.944Z,25.46
2019-06-29T08:36:49.971Z,25.41
2019-06-29T08:37:50.005Z,25.31
2019-06-29T08:38:50.037Z,25.44
2019-06-29T08:39:50.050Z,25.54
2019-06-29T08:40:50.079Z,25.54
2019-06-29T08:41:50.105Z,25.65
2019-06-29T08:42:50.131Z,25.72
2019-06-29T08:43:50.164Z,25.63
2019-06-29T08:44:50.191Z,25.69
2019-06-29T08:45:50.211Z,25.77
2019-06-29T08:46:50.240Z,25.91
2019-06-29T08:47:50.268Z,26.00
2019-06-29T08:48:50.291Z,26.03
2019-06-29T08:49:50.322Z,26.13
2019-06-29T08:50:50.351Z,26.19
2019-06-29T08:52:04.598Z,26.33
2019-06-29T08:52:50.407Z,26.33
2019-06-29T08:53:50.423Z,26.18
2019-06-29T08:54:50.461Z,26.23
2019-06-29T08:55:50.486Z,26.19
2019-06-29T08:56:50.509Z,26.29
2019-06-29T08:57:50.536Z,26.38
2019-06-29T08:58:54.360Z,26.29
2019-06-29T08:59:50.587Z,25.91
2019-06-29T09:00:50.620Z,25.80
2019-06-29T09:01:50.638Z,25.77
2019-06-29T09:02:50.668Z,25.87
2019-06-29T09:03:50.695Z,25.91
2019-06-29T09:04:51.033Z,25.98
2019-06-29T09:05:50.746Z,26.31
2019-06-29T09:06:50.788Z,26.48
2019-06-29T09:07:50.806Z,26.47
2019-06-29T09:08:50.827Z,26.68
2019-06-29T09:09:50.855Z,26.60
2019-06-29T09:10:50.888Z,26.59
2019-06-29T09:11:50.910Z,26.78
2019-06-29T09:12:50.946Z,26.89
2019-06-29T09:13:50.971Z,27.03
2019-06-29T09:14:50.988Z,27.00
2019-06-29T09:15:51.014Z,26.77
2019-06-29T09:16:51.045Z,26.70
2019-06-29T09:17:51.070Z,26.45
2019-06-29T09:18:51.108Z,26.58
2019-06-29T09:19:51.124Z,26.66
2019-06-29T09:20:51.154Z,26.73
2019-06-29T09:21:51.177Z,26.70
2019-06-29T09:22:51.208Z,26.66
2019-06-29T09:23:51.231Z,26.58
2019-06-29T09:24:51.261Z,26.51
2019-06-29T09:25:51.293Z,26.65
2019-06-29T09:26:51.315Z,26.68
2019-06-29T09:27:51.798Z,26.89
2019-06-29T09:28:51.758Z,26.96
2019-06-29T09:29:51.922Z,27.12
2019-06-29T09:30:51.961Z,27.10
2019-06-29T09:31:54.464Z,27.18
2019-06-29T09:32:52.712Z,27.36
2019-06-29T09:33:51.928Z,27.42
2019-06-29T09:34:52.184Z,27.47
2019-06-29T09:35:52.723Z,27.18
2019-06-29T09:36:52.119Z,27.15
2019-06-29T09:37:51.728Z,27.12
2019-06-29T09:38:52.426Z,27.20
2019-06-29T09:39:52.000Z,27.21
2019-06-29T09:40:51.771Z,27.33
2019-06-29T09:41:51.859Z,27.14
2019-06-29T09:42:51.992Z,27.11
2019-06-29T09:43:52.137Z,27.40
2019-06-29T09:44:52.325Z,27.51
2019-06-29T09:45:52.161Z,27.65
2019-06-29T09:46:52.298Z,27.86
2019-06-29T09:47:51.889Z,27.73
2019-06-29T09:48:52.475Z,27.39
2019-06-29T09:49:52.513Z,27.47
2019-06-29T09:50:52.531Z,27.58
2019-06-29T09:51:52.146Z,27.75
2019-06-29T09:52:52.028Z,27.80
2019-06-29T09:53:52.051Z,27.86
2019-06-29T09:54:52.484Z,27.90
2019-06-29T09:55:53.011Z,27.75
2019-06-29T09:56:53.155Z,27.86
2019-06-29T09:57:52.163Z,27.89
2019-06-29T09:58:52.245Z,27.92
2019-06-29T09:59:52.213Z,27.85
2019-06-29T10:00:52.421Z,27.82
2019-06-29T10:01:52.550Z,27.68
2019-06-29T10:02:54.429Z,27.52
2019-06-29T10:03:52.361Z,27.33
2019-06-29T10:04:52.351Z,27.48
2019-06-29T10:05:52.979Z,27.48
2019-06-29T10:06:52.410Z,27.59
2019-06-29T10:07:52.540Z,27.63
2019-06-29T10:08:52.459Z,27.65
2019-06-29T10:09:52.494Z,27.80
2019-06-29T10:10:52.525Z,27.96
2019-06-29T10:11:52.657Z,28.11
2019-06-29T10:12:53.025Z,27.95
2019-06-29T10:13:52.599Z,27.75
2019-06-29T10:14:52.633Z,27.82
2019-06-29T10:15:52.660Z,27.93
2019-06-29T10:16:52.987Z,28.07
2019-06-29T10:17:52.709Z,28.30
2019-06-29T10:18:52.744Z,28.45
2019-06-29T10:19:52.767Z,28.49
2019-06-29T10:20:52.798Z,28.45
2019-06-29T10:21:52.941Z,28.47
2019-06-29T10:22:52.849Z,28.63
2019-06-29T10:23:52.873Z,28.70
2019-06-29T10:24:54.932Z,28.72
2019-06-29T10:25:53.395Z,28.72
2019-06-29T10:26:52.959Z,28.76
2019-06-29T10:27:54.664Z,28.54
2019-06-29T10:28:53.021Z,28.51
2019-06-29T10:29:57.807Z,28.44
2019-06-29T10:30:55.472Z,28.54
2019-06-29T10:31:53.101Z,28.63
2019-06-29T10:32:53.137Z,28.64
2019-06-29T10:33:53.327Z,28.59
2019-06-29T10:34:53.186Z,28.63
2019-06-29T10:35:53.222Z,28.39
2019-06-29T10:36:53.244Z,28.20
2019-06-29T10:37:53.267Z,28.20
2019-06-29T10:38:53.295Z,28.26
2019-06-29T10:39:53.318Z,28.25
2019-06-29T10:40:53.347Z,28.25
2019-06-29T10:41:53.628Z,28.44
2019-06-29T10:42:53.411Z,28.39
2019-06-29T10:43:53.434Z,28.49
2019-06-29T10:44:54.215Z,28.56
2019-06-29T10:45:53.488Z,28.56
2019-06-29T10:46:53.516Z,28.38
2019-06-29T10:47:53.541Z,28.63
2019-06-29T10:48:53.570Z,28.76
2019-06-29T10:49:53.600Z,29.05
2019-06-29T10:50:53.632Z,28.96
2019-06-29T10:51:53.659Z,29.05
2019-06-29T10:52:53.680Z,29.01
2019-06-29T10:53:53.709Z,29.08
2019-06-29T10:54:54.015Z,29.29
2019-06-29T10:55:53.765Z,29.38
2019-06-29T10:56:53.795Z,29.36
2019-06-29T10:57:53.823Z,29.35
2019-06-29T10:58:54.477Z,29.54
2019-06-29T11:00:06.917Z,29.60
2019-06-29T11:00:53.910Z,29.59
2019-06-29T11:01:53.942Z,29.47
2019-06-29T11:02:53.964Z,29.69
2019-06-29T11:03:53.989Z,29.60
2019-06-29T11:04:54.020Z,29.68
2019-06-29T11:05:54.055Z,29.79
2019-06-29T11:06:54.078Z,29.47
2019-06-29T11:07:54.110Z,29.07
2019-06-29T11:08:54.131Z,28.91
2019-06-29T11:09:54.160Z,28.59
2019-06-29T11:10:54.191Z,28.42
2019-06-29T11:11:59.551Z,28.52
2019-06-29T11:12:54.255Z,28.70
2019-06-29T11:13:54.307Z,28.89
2019-06-29T11:14:54.309Z,29.08
2019-06-29T11:15:54.332Z,29.34
2019-06-29T11:16:54.364Z,29.34
2019-06-29T11:17:54.409Z,29.51
2019-06-29T11:18:54.422Z,29.57
2019-06-29T11:19:54.833Z,29.61
2019-06-29T11:20:54.471Z,29.59
2019-06-29T11:21:54.511Z,29.51
2019-06-29T11:22:54.531Z,29.36
2019-06-29T11:23:54.555Z,29.32
2019-06-29T11:24:54.590Z,29.44
2019-06-29T11:25:54.613Z,29.50
2019-06-29T11:26:58.542Z,29.57
2019-06-29T11:28:15.137Z,29.60
2019-06-29T11:28:54.706Z,29.68
2019-06-29T11:29:54.728Z,29.65
2019-06-29T11:30:54.756Z,29.68
2019-06-29T11:31:54.783Z,29.68
2019-06-29T11:32:54.821Z,29.66
2019-06-29T11:33:54.851Z,29.69
2019-06-29T11:34:54.876Z,29.50
2019-06-29T11:35:55.585Z,29.42
2019-06-29T11:36:54.925Z,29.47
2019-06-29T11:37:54.953Z,29.66
2019-06-29T11:38:54.986Z,29.76
2019-06-29T11:39:55.018Z,29.81
2019-06-29T11:40:55.040Z,29.84
2019-06-29T11:41:55.671Z,29.82
2019-06-29T11:42:55.095Z,29.68
2019-06-29T11:43:55.130Z,29.63
2019-06-29T11:44:55.152Z,29.71
2019-06-29T11:45:55.183Z,29.71
2019-06-29T11:46:55.213Z,29.76
2019-06-29T11:47:58.582Z,29.61
2019-06-29T11:48:55.274Z,29.63
2019-06-29T11:50:03.530Z,29.68
2019-06-29T11:50:55.329Z,29.69
2019-06-29T11:51:55.814Z,29.87
2019-06-29T11:52:55.380Z,29.91
2019-06-29T11:53:55.415Z,29.95
2019-06-29T11:54:55.437Z,30.00
2019-06-29T11:55:55.468Z,29.98
2019-06-29T11:56:55.494Z,30.05
2019-06-29T11:57:55.523Z,30.03
2019-06-29T11:58:55.552Z,30.00
2019-06-29T11:59:55.588Z,30.00
2019-06-29T12:00:55.610Z,30.00
2019-06-29T12:01:55.646Z,29.81
2019-06-29T12:02:55.667Z,29.81
2019-06-29T12:03:55.846Z,29.82
2019-06-29T12:04:55.723Z,29.78
2019-06-29T12:05:55.758Z,30.00
2019-06-29T12:06:55.786Z,30.24
2019-06-29T12:07:55.808Z,30.46
2019-06-29T12:08:55.846Z,30.53
2019-06-29T12:09:55.868Z,30.68
2019-06-29T12:10:55.896Z,30.70
2019-06-29T12:11:55.976Z,30.63
2019-06-29T12:12:55.959Z,30.61
2019-06-29T12:13:55.987Z,30.59
2019-06-29T12:14:56.019Z,30.57
2019-06-29T12:15:56.043Z,30.59
2019-06-29T12:16:56.074Z,30.62
2019-06-29T12:17:56.097Z,30.65
2019-06-29T12:18:56.123Z,30.61
2019-06-29T12:19:56.170Z,30.30
2019-06-29T12:20:56.188Z,30.30
2019-06-29T12:21:56.218Z,30.27
2019-06-29T12:22:56.239Z,30.31
2019-06-29T12:23:56.620Z,30.44
2019-06-29T12:24:56.304Z,30.65
2019-06-29T12:25:56.326Z,30.68
2019-06-29T12:26:56.395Z,30.63
2019-06-29T12:27:56.385Z,30.55
2019-06-29T12:28:56.413Z,30.57
2019-06-29T12:29:56.449Z,30.48
2019-06-29T12:31:06.432Z,30.50
2019-06-29T12:31:56.504Z,30.50
2019-06-29T12:32:56.528Z,30.47
2019-06-29T12:33:56.557Z,30.44
2019-06-29T12:34:56.984Z,30.44
2019-06-29T12:35:56.616Z,30.53
2019-06-29T12:36:56.647Z,30.59
2019-06-29T12:37:56.673Z,30.75
2019-06-29T12:38:56.701Z,30.90
2019-06-29T12:39:56.735Z,30.84
2019-06-29T12:40:56.764Z,30.94
2019-06-29T12:41:56.785Z,31.05
2019-06-29T12:42:56.814Z,31.14
2019-06-29T12:43:56.847Z,31.29
2019-06-29T12:44:56.873Z,31.24
2019-06-29T12:45:56.915Z,31.27
2019-06-29T12:46:56.930Z,31.37
2019-06-29T12:47:56.960Z,31.21
2019-06-29T12:48:56.995Z,31.02
2019-06-29T12:49:57.024Z,30.77
2019-06-29T12:50:57.046Z,30.77
2019-06-29T12:51:57.077Z,30.87
2019-06-29T12:52:57.110Z,30.92